Time;durP1;ratioP1;P1;durP2;ratioP2;P2;SDS_P1;SDS_P2;PMS_P1;PMS_P2;Temp;Humidity;BMP_temperature;BMP_pressure;BME280_temperature;BME280_humidity;BME280_pressure;Samples;Min_cycle;Max_cycle;Signal;HPM_P1;HPM_P2
2021/12/17 00:03:38;;;;;;;31.33;11.35;;;;;;;;;;5380835;22;20084;-65
2021/12/17 00:08:29;;;;;;;42.20;13.52;;;;;;;;;;5008456;28;20088;-65
2021/12/17 00:10:55;;;;;;;43.47;15.85;;;;;;;;;;5032406;28;20029;-65
2021/12/17 00:13:22;;;;;;;54.78;15.95;;;;;;;;;;5012661;28;20038;-65
2021/12/17 00:15:48;;;;;;;43.55;14.48;;;;;;;;;;5017740;22;20037;-77
2021/12/17 00:18:22;;;;;;;45.10;14.60;;;;;;;;;;4992138;28;20031;-77
2021/12/17 00:53:30;;;;;;;50.08;15.82;;;;;;;;;;4991586;28;20161;-78
2021/12/17 00:55:56;;;;;;;49.53;14.73;;;;;;;;;;4990518;28;20038;-78
2021/12/17 00:58:22;;;;;;;45.15;14.02;;;;;;;;;;4984935;28;20403;-78
2021/12/17 01:00:49;;;;;;;40.22;13.98;;;;;;;;;;4979987;28;20046;-78
2021/12/17 01:03:15;;;;;;;44.92;13.98;;;;;;;;;;4988340;28;20484;-78
2021/12/17 01:05:41;;;;;;;42.00;14.07;;;;;;;;;;4992337;28;20042;-78
2021/12/17 01:08:08;;;;;;;39.38;13.63;;;;;;;;;;4987884;28;20034;-78
2021/12/17 01:10:39;;;;;;;41.78;13.13;;;;;;;;;;4991609;28;20038;-78
2021/12/17 01:13:06;;;;;;;;;;;;;;;;;;4990817;28;20038;-78
2021/12/17 01:15:33;;;;;;;36.88;12.77;;;;;;;;;;4986198;28;19925;-77
2021/12/17 01:18:04;;;;;;;40.58;12.77;;;;;;;;;;4977873;28;20045;-78
2021/12/17 01:24:00;;;;;;;44.25;12.38;;;;;;;;;;4991316;28;20042;-78
2021/12/17 01:36:29;;;;;;;43.08;13.23;;;;;;;;;;4990956;28;20134;-78
2021/12/17 01:40:14;;;;;;;41.30;12.57;;;;;;;;;;4992914;28;20034;-78
2021/12/17 01:42:05;;;;;;;46.60;12.27;;;;;;;;;;4977463;28;20053;-78
2021/12/17 01:44:36;;;;;;;39.88;12.18;;;;;;;;;;4979297;28;20058;-78
2021/12/17 01:47:02;;;;;;;38.77;11.30;;;;;;;;;;4979439;28;20052;-78
2021/12/17 02:00:41;;;;;;;36.05;11.55;;;;;;;;;;4988643;28;20101;-78
2021/12/17 02:03:07;;;;;;;43.22;11.95;;;;;;;;;;4973073;28;20558;-78
2021/12/17 02:05:34;;;;;;;35.15;11.65;;;;;;;;;;4987238;28;20045;-78
2021/12/17 02:08:00;;;;;;;31.40;10.18;;;;;;;;;;4991844;28;20109;-79
2021/12/17 02:29:53;;;;;;;37.90;10.55;;;;;;;;;;4986362;28;20122;-78
2021/12/17 02:32:20;;;;;;;34.50;11.13;;;;;;;;;;4973067;28;20503;-78
2021/12/17 02:37:16;;;;;;;33.45;10.30;;;;;;;;;;4979550;28;20077;-78
2021/12/17 02:40:09;;;;;;;31.97;10.67;;;;;;;;;;4987429;28;20052;-78
2021/12/17 02:45:32;;;;;;;31.88;10.15;;;;;;;;;;4991017;28;20038;-78
2021/12/17 02:45:36;;;;;;;34.30;11.07;;;;;;;;;;4986161;28;20053;-78
2021/12/17 02:48:02;;;;;;;29.42;10.10;;;;;;;;;;4995168;28;20046;-79
2021/12/17 02:50:28;;;;;;;29.98;10.13;;;;;;;;;;4992388;28;20053;-79
2021/12/17 02:52:55;;;;;;;30.73;10.18;;;;;;;;;;4991256;28;20051;-79
2021/12/17 02:55:22;;;;;;;32.47;9.63;;;;;;;;;;4984332;28;20057;-79
2021/12/17 02:57:49;;;;;;;34.90;10.65;;;;;;;;;;4987906;28;20514;-79
2021/12/17 03:00:15;;;;;;;36.85;10.98;;;;;;;;;;4975768;28;20045;-79
2021/12/17 03:02:42;;;;;;;39.70;10.70;;;;;;;;;;4993081;28;20045;-79
2021/12/17 03:05:09;;;;;;;34.50;10.45;;;;;;;;;;4993989;28;20038;-79
2021/12/17 03:07:39;;;;;;;37.63;11.20;;;;;;;;;;4980698;28;20039;-79
2021/12/17 03:10:08;;;;;;;38.63;10.80;;;;;;;;;;4976689;28;20043;-80
2021/12/17 03:12:42;;;;;;;41.70;11.32;;;;;;;;;;4992929;28;20050;-80
2021/12/17 03:15:18;;;;;;;34.17;10.82;;;;;;;;;;4983545;28;20054;-79
2021/12/17 03:26:21;;;;;;;41.30;11.05;;;;;;;;;;4953940;28;20051;-80
2021/12/17 03:28:51;;;;;;;39.97;11.15;;;;;;;;;;4965281;28;20039;-80
2021/12/17 03:31:17;;;;;;;36.33;11.07;;;;;;;;;;4969255;28;20042;-80
2021/12/17 03:33:44;;;;;;;44.47;12.55;;;;;;;;;;4975286;28;20441;-80
2021/12/17 03:36:14;;;;;;;47.55;12.30;;;;;;;;;;4984420;28;20095;-80
2021/12/17 03:38:40;;;;;;;42.08;12.43;;;;;;;;;;4979125;28;20046;-80
2021/12/17 03:43:45;;;;;;;49.85;12.10;;;;;;;;;;4994704;28;20050;-80
2021/12/17 03:46:12;;;;;;;54.60;12.02;;;;;;;;;;4978282;28;20035;-80
2021/12/17 03:48:39;;;;;;;39.92;11.70;;;;;;;;;;4986597;28;20035;-80
2021/12/17 03:51:11;;;;;;;33.55;11.93;;;;;;;;;;4989762;28;20050;-80
2021/12/17 03:53:37;;;;;;;38.05;11.30;;;;;;;;;;4983970;28;20105;-80
2021/12/17 03:56:03;;;;;;;41.33;10.88;;;;;;;;;;4991611;28;20035;-80
2021/12/17 03:58:29;;;;;;;41.72;12.25;;;;;;;;;;4975058;28;20054;-80
2021/12/17 04:00:55;;;;;;;36.45;11.43;;;;;;;;;;4974481;28;20043;-80
2021/12/17 04:03:21;;;;;;;45.90;12.10;;;;;;;;;;4988917;28;20034;-80
2021/12/17 04:05:47;;;;;;;31.13;10.73;;;;;;;;;;4978812;28;20035;-80
2021/12/17 04:08:13;;;;;;;35.97;12.15;;;;;;;;;;4983154;28;20035;-81
2021/12/17 04:10:47;;;;;;;41.95;11.73;;;;;;;;;;4993411;28;20046;-81
2021/12/17 04:13:27;;;;;;;38.67;11.60;;;;;;;;;;4992334;28;20046;-80
2021/12/17 04:16:03;;;;;;;34.80;11.75;;;;;;;;;;4980174;28;20046;-80
2021/12/17 04:18:29;;;;;;;34.78;11.35;;;;;;;;;;4984995;28;20047;-80
2021/12/17 04:20:55;;;;;;;34.83;11.40;;;;;;;;;;4984439;28;20078;-80
2021/12/17 04:23:21;;;;;;;33.35;10.93;;;;;;;;;;4994057;28;20045;-80
2021/12/17 04:25:48;;;;;;;36.17;11.45;;;;;;;;;;4993658;28;20061;-80
2021/12/17 04:28:15;;;;;;;39.65;12.13;;;;;;;;;;4987248;28;20046;-81
2021/12/17 04:30:41;;;;;;;36.03;11.40;;;;;;;;;;4990703;28;20090;-80
2021/12/17 04:33:07;;;;;;;40.35;11.45;;;;;;;;;;4974590;28;20562;-80
2021/12/17 04:35:33;;;;;;;36.75;11.82;;;;;;;;;;4974352;28;20081;-81
2021/12/17 04:38:00;;;;;;;41.45;12.75;;;;;;;;;;4977912;28;20515;-80
2021/12/17 04:40:27;;;;;;;44.58;12.25;;;;;;;;;;4983318;28;20046;-80
2021/12/17 04:45:21;;;;;;;38.85;12.00;;;;;;;;;;4980636;28;20045;-80
2021/12/17 04:58:45;;;;;;;33.47;11.43;;;;;;;;;;4973174;28;20412;-80
2021/12/17 05:01:14;;;;;;;33.53;11.32;;;;;;;;;;4974039;28;20047;-80
2021/12/17 05:03:40;;;;;;;28.80;10.45;;;;;;;;;;4986054;28;20404;-80
2021/12/17 05:06:06;;;;;;;38.30;10.60;;;;;;;;;;4991489;28;20034;-81
2021/12/17 05:08:33;;;;;;;31.70;10.77;;;;;;;;;;4991401;28;20070;-81
2021/12/17 05:11:26;;;;;;;30.75;10.57;;;;;;;;;;4992942;28;20042;-81
2021/12/17 05:19:41;;;;;;;34.22;11.13;;;;;;;;;;4973683;28;20101;-81
2021/12/17 05:22:10;;;;;;;40.53;11.57;;;;;;;;;;4985878;28;20049;-81
2021/12/17 05:24:36;;;;;;;33.80;10.43;;;;;;;;;;4982328;28;20058;-80
2021/12/17 05:27:02;;;;;;;26.50;10.23;;;;;;;;;;4982663;28;20069;-81
2021/12/17 05:29:28;;;;;;;30.42;10.73;;;;;;;;;;4981093;28;20564;-81
2021/12/17 05:31:54;;;;;;;41.28;11.00;;;;;;;;;;4972999;28;20074;-80
2021/12/17 05:34:20;;;;;;;31.65;10.98;;;;;;;;;;4973424;28;20637;-81
2021/12/17 05:36:46;;;;;;;31.08;10.60;;;;;;;;;;4977016;28;20534;-80
2021/12/17 05:39:12;;;;;;;32.80;11.40;;;;;;;;;;4980360;28;20045;-81
2021/12/17 05:41:38;;;;;;;51.05;11.88;;;;;;;;;;4979024;28;20039;-80
2021/12/17 05:44:04;;;;;;;41.17;11.18;;;;;;;;;;4989420;28;20600;-80
2021/12/17 05:46:48;;;;;;;32.17;11.07;;;;;;;;;;4986819;28;20408;-73
2021/12/17 05:49:14;;;;;;;32.65;11.10;;;;;;;;;;4990023;28;20063;-77
2021/12/17 05:51:40;;;;;;;27.40;10.52;;;;;;;;;;4984534;28;20043;-79
2021/12/17 05:54:06;;;;;;;24.40;8.93;;;;;;;;;;4992552;28;20129;-79
2021/12/17 05:56:32;;;;;;;34.45;10.70;;;;;;;;;;4985168;28;20074;-79
2021/12/17 05:58:58;;;;;;;31.67;9.95;;;;;;;;;;4985857;28;20100;-78
2021/12/17 06:01:24;;;;;;;32.03;10.02;;;;;;;;;;4991956;28;20129;-79
2021/12/17 06:03:50;;;;;;;32.63;10.30;;;;;;;;;;4989621;28;20065;-79
2021/12/17 06:06:33;;;;;;;29.42;10.65;;;;;;;;;;4992392;28;20046;-79
2021/12/17 06:09:05;;;;;;;33.35;10.35;;;;;;;;;;4985596;28;20035;-79
2021/12/17 06:11:31;;;;;;;35.03;10.75;;;;;;;;;;4992115;28;20042;-80
2021/12/17 06:13:57;;;;;;;33.03;10.35;;;;;;;;;;4993686;28;20150;-79
2021/12/17 06:16:23;;;;;;;40.70;10.77;;;;;;;;;;5027850;23;20065;-64
2021/12/17 06:18:49;;;;;;;34.45;10.52;;;;;;;;;;5031161;28;20037;-64
2021/12/17 06:21:17;;;;;;;43.75;11.13;;;;;;;;;;5034758;28;20458;-63
2021/12/17 06:23:43;;;;;;;37.20;11.25;;;;;;;;;;5017443;28;20042;-63
2021/12/17 06:26:09;;;;;;;34.88;10.75;;;;;;;;;;5032525;28;20037;-64
2021/12/17 06:28:35;;;;;;;51.22;11.52;;;;;;;;;;5027105;28;20133;-64
2021/12/17 06:31:00;;;;;;;48.22;11.68;;;;;;;;;;5030858;28;20132;-64
2021/12/17 06:33:26;;;;;;;35.22;10.13;;;;;;;;;;5030164;28;20037;-64
2021/12/17 06:35:52;;;;;;;35.35;11.18;;;;;;;;;;5019844;28;20037;-64
2021/12/17 06:38:18;;;;;;;31.52;10.60;;;;;;;;;;5031540;28;20115;-64
2021/12/17 06:40:45;;;;;;;35.03;11.18;;;;;;;;;;5031880;28;20044;-64
2021/12/17 06:43:11;;;;;;;30.45;10.82;;;;;;;;;;5026718;28;20280;-64
2021/12/17 06:45:55;;;;;;;34.13;10.50;;;;;;;;;;5026088;28;20510;-64
2021/12/17 06:48:26;;;;;;;32.45;10.73;;;;;;;;;;5025974;28;20042;-64
2021/12/17 07:05:56;;;;;;;30.95;10.90;;;;;;;;;;5028563;28;20540;-64
2021/12/17 07:09:58;;;;;;;37.03;10.63;;;;;;;;;;5025728;28;20042;-64
2021/12/17 07:18:02;;;;;;;37.38;11.18;;;;;;;;;;5031169;28;20099;-65
2021/12/17 07:23:21;;;;;;;33.63;10.98;;;;;;;;;;5027137;28;20046;-64
2021/12/17 07:29:08;;;;;;;36.78;10.85;;;;;;;;;;5021851;28;20038;-64
2021/12/17 07:32:16;;;;;;;34.25;10.35;;;;;;;;;;5026381;28;20045;-64
2021/12/17 07:34:13;;;;;;;35.25;10.88;;;;;;;;;;5025889;28;20060;-64
2021/12/17 07:39:25;;;;;;;31.80;9.93;;;;;;;;;;5002294;28;20053;-64
2021/12/17 07:41:51;;;;;;;43.17;11.00;;;;;;;;;;5029187;28;20041;-63
2021/12/17 07:44:17;;;;;;;29.38;9.93;;;;;;;;;;5026339;28;20033;-64
2021/12/17 07:46:43;;;;;;;28.52;10.13;;;;;;;;;;5029191;28;20033;-64
2021/12/17 07:49:09;;;;;;;31.08;9.70;;;;;;;;;;5030047;28;20151;-63
2021/12/17 07:51:36;;;;;;;37.60;10.93;;;;;;;;;;5027571;28;20044;-64
2021/12/17 07:54:02;;;;;;;36.03;10.95;;;;;;;;;;5028760;28;20042;-64
2021/12/17 07:56:39;;;;;;;30.60;9.95;;;;;;;;;;5030327;28;20053;-64
2021/12/17 07:59:06;;;;;;;36.80;10.75;;;;;;;;;;5031574;28;20037;-64
2021/12/17 08:01:32;;;;;;;34.75;10.30;;;;;;;;;;5025745;28;20052;-64
2021/12/17 08:03:58;;;;;;;26.60;10.00;;;;;;;;;;5030423;28;20087;-64
2021/12/17 08:06:24;;;;;;;28.83;10.10;;;;;;;;;;5026908;28;20083;-64
2021/12/17 08:08:51;;;;;;;28.70;9.82;;;;;;;;;;5028861;28;20496;-64
2021/12/17 08:11:18;;;;;;;32.28;10.80;;;;;;;;;;5029236;28;20053;-64
2021/12/17 08:13:45;;;;;;;34.22;10.45;;;;;;;;;;5018586;28;20049;-64
2021/12/17 08:16:21;;;;;;;28.75;10.57;;;;;;;;;;5027750;28;20121;-64
2021/12/17 08:24:44;;;;;;;30.58;10.20;;;;;;;;;;5029213;28;20084;-63
2021/12/17 08:31:56;;;;;;;30.42;10.90;;;;;;;;;;5032078;28;20080;-63
2021/12/17 08:34:22;;;;;;;30.75;10.98;;;;;;;;;;5028657;28;20073;-64
2021/12/17 08:36:48;;;;;;;28.13;10.90;;;;;;;;;;5018479;28;20503;-64
2021/12/17 08:39:14;;;;;;;32.55;10.02;;;;;;;;;;5029301;28;20057;-63
2021/12/17 08:41:41;;;;;;;28.17;10.52;;;;;;;;;;5031053;28;20056;-63
2021/12/17 08:44:07;;;;;;;31.15;10.15;;;;;;;;;;5024840;28;20566;-63
2021/12/17 08:46:33;;;;;;;31.77;11.00;;;;;;;;;;5016105;28;20037;-65
2021/12/17 08:48:59;;;;;;;32.33;11.45;;;;;;;;;;5028926;28;20034;-65
2021/12/17 08:51:25;;;;;;;33.00;11.50;;;;;;;;;;5020539;28;20041;-64
2021/12/17 08:53:51;;;;;;;25.08;10.05;;;;;;;;;;5029049;28;20102;-65
2021/12/17 08:56:22;;;;;;;29.50;10.88;;;;;;;;;;5028419;28;20111;-64
2021/12/17 08:58:51;;;;;;;27.23;11.38;;;;;;;;;;5029759;28;20061;-65
2021/12/17 09:01:17;;;;;;;26.58;10.52;;;;;;;;;;5030354;28;20092;-65
2021/12/17 09:03:43;;;;;;;29.38;11.40;;;;;;;;;;5029208;28;20041;-64
2021/12/17 09:06:09;;;;;;;31.23;10.77;;;;;;;;;;5032755;28;20760;-65
2021/12/17 09:08:35;;;;;;;29.67;10.60;;;;;;;;;;5024482;28;20081;-64
2021/12/17 09:11:01;;;;;;;30.58;11.30;;;;;;;;;;5027265;28;20050;-65
2021/12/17 09:13:27;;;;;;;30.98;11.20;;;;;;;;;;5017405;28;20526;-65
2021/12/17 09:15:57;;;;;;;31.95;10.80;;;;;;;;;;5030699;28;20398;-63
2021/12/17 09:18:23;;;;;;;30.77;11.40;;;;;;;;;;5031885;28;20040;-64
2021/12/17 09:20:49;;;;;;;28.70;10.75;;;;;;;;;;5025355;28;20045;-65
2021/12/17 09:23:15;;;;;;;26.88;10.75;;;;;;;;;;5026708;28;20277;-64
2021/12/17 09:25:41;;;;;;;30.88;11.20;;;;;;;;;;5025527;28;20077;-65
2021/12/17 09:28:08;;;;;;;28.45;10.75;;;;;;;;;;5029789;28;20044;-64
2021/12/17 09:30:34;;;;;;;30.02;11.30;;;;;;;;;;5024662;28;20449;-65
2021/12/17 09:33:00;;;;;;;29.02;11.40;;;;;;;;;;5013118;28;20034;-65
2021/12/17 09:35:26;;;;;;;24.67;9.93;;;;;;;;;;5030491;28;20088;-64
2021/12/17 09:37:52;;;;;;;28.00;10.60;;;;;;;;;;5017863;28;20037;-64
2021/12/17 09:40:18;;;;;;;27.05;10.55;;;;;;;;;;5024184;28;20029;-65
2021/12/17 09:42:45;;;;;;;28.73;10.95;;;;;;;;;;5025549;28;20076;-65
2021/12/17 09:45:12;;;;;;;26.73;11.07;;;;;;;;;;5029918;28;20104;-65
2021/12/17 09:47:38;;;;;;;24.25;10.98;;;;;;;;;;5026858;28;20120;-66
2021/12/17 09:50:05;;;;;;;24.10;10.07;;;;;;;;;;5014602;28;20168;-65
2021/12/17 09:52:31;;;;;;;25.35;10.65;;;;;;;;;;5016981;28;20529;-65
2021/12/17 09:54:57;;;;;;;25.27;9.52;;;;;;;;;;5024347;28;20054;-65
2021/12/17 09:57:25;;;;;;;26.40;10.70;;;;;;;;;;5025700;28;20041;-65
2021/12/17 09:59:51;;;;;;;23.77;10.25;;;;;;;;;;5027439;28;20587;-65
2021/12/17 10:02:17;;;;;;;22.98;10.50;;;;;;;;;;5029129;28;20037;-65
2021/12/17 10:04:45;;;;;;;22.67;10.43;;;;;;;;;;5029882;28;20411;-65
2021/12/17 10:07:17;;;;;;;26.45;11.20;;;;;;;;;;5026806;28;20041;-65
2021/12/17 10:10:03;;;;;;;25.45;10.68;;;;;;;;;;5030369;28;20033;-64
2021/12/17 10:12:30;;;;;;;20.92;9.63;;;;;;;;;;5026664;28;20034;-64
2021/12/17 10:14:59;;;;;;;24.33;10.23;;;;;;;;;;5018822;28;20564;-64
2021/12/17 10:17:25;;;;;;;28.60;11.52;;;;;;;;;;5030323;28;20034;-64
2021/12/17 10:19:56;;;;;;;22.70;10.80;;;;;;;;;;5015711;28;20364;-67
2021/12/17 10:22:22;;;;;;;;;;;;;;;;;;5029132;28;20116;-65
2021/12/17 10:24:57;;;;;;;27.05;10.27;;;;;;;;;;5021590;28;19917;-66
2021/12/17 10:27:27;;;;;;;23.15;9.85;;;;;;;;;;5028007;28;20060;-66
2021/12/17 10:29:54;;;;;;;25.05;11.27;;;;;;;;;;5028967;28;20038;-65
2021/12/17 10:32:21;;;;;;;21.40;10.32;;;;;;;;;;5022143;28;20409;-65
2021/12/17 10:35:07;;;;;;;24.30;10.75;;;;;;;;;;5023783;28;20041;-65
2021/12/17 10:37:34;;;;;;;23.85;10.70;;;;;;;;;;5028104;28;20057;-65
2021/12/17 10:40:00;;;;;;;22.67;10.50;;;;;;;;;;5025061;28;20037;-65
2021/12/17 10:42:32;;;;;;;21.83;10.32;;;;;;;;;;5023614;28;20038;-65
2021/12/17 10:45:11;;;;;;;24.23;9.95;;;;;;;;;;5026222;28;20037;-65
2021/12/17 10:47:47;;;;;;;24.20;10.10;;;;;;;;;;5028024;28;20120;-65
2021/12/17 10:50:23;;;;;;;24.25;10.05;;;;;;;;;;5011889;28;20044;-64
2021/12/17 10:52:55;;;;;;;21.95;10.88;;;;;;;;;;5013038;28;20136;-65
2021/12/17 10:55:23;;;;;;;23.17;10.35;;;;;;;;;;5012740;28;20056;-65
2021/12/17 10:57:50;;;;;;;23.10;10.25;;;;;;;;;;5022452;28;20049;-65
2021/12/17 11:00:17;;;;;;;20.88;10.32;;;;;;;;;;5029545;28;20052;-65
2021/12/17 11:02:50;;;;;;;18.08;8.88;;;;;;;;;;5033239;28;20537;-64
2021/12/17 11:05:17;;;;;;;18.92;9.95;;;;;;;;;;5026622;28;20041;-65
2021/12/17 11:07:49;;;;;;;20.92;10.02;;;;;;;;;;5032783;28;20068;-65
2021/12/17 11:10:16;;;;;;;20.10;10.00;;;;;;;;;;5019164;28;20056;-65
2021/12/17 11:12:46;;;;;;;18.02;9.40;;;;;;;;;;5026724;28;20040;-64
2021/12/17 11:15:30;;;;;;;25.27;10.02;;;;;;;;;;5013650;28;20463;-65
2021/12/17 11:18:00;;;;;;;20.00;10.02;;;;;;;;;;5021083;28;20065;-65
2021/12/17 11:20:26;;;;;;;21.05;9.82;;;;;;;;;;5029420;28;20136;-65
2021/12/17 11:22:53;;;;;;;21.45;10.65;;;;;;;;;;5031748;28;20124;-65
2021/12/17 11:25:20;;;;;;;24.75;10.73;;;;;;;;;;5032071;28;20648;-65
2021/12/17 11:27:46;;;;;;;21.25;10.90;;;;;;;;;;5033393;28;20044;-65
2021/12/17 11:30:17;;;;;;;22.02;10.57;;;;;;;;;;5014297;28;20038;-65
2021/12/17 11:32:44;;;;;;;22.20;10.57;;;;;;;;;;5021695;28;20045;-65
2021/12/17 11:35:10;;;;;;;21.00;10.15;;;;;;;;;;5034357;28;20466;-65
2021/12/17 11:37:36;;;;;;;20.25;9.98;;;;;;;;;;5034353;28;20081;-65
2021/12/17 11:40:06;;;;;;;20.85;10.77;;;;;;;;;;5015003;28;20117;-65
2021/12/17 11:42:54;;;;;;;19.13;9.80;;;;;;;;;;5014409;28;20050;-65
2021/12/17 11:45:25;;;;;;;20.90;9.75;;;;;;;;;;5028771;28;20038;-65
2021/12/17 11:47:52;;;;;;;19.35;9.50;;;;;;;;;;5030978;28;20040;-65
2021/12/17 11:50:18;;;;;;;20.20;9.82;;;;;;;;;;5033700;28;20045;-65
2021/12/17 11:52:46;;;;;;;18.90;10.05;;;;;;;;;;5022897;28;20100;-65
2021/12/17 11:55:33;;;;;;;21.45;9.52;;;;;;;;;;5013831;28;20523;-65
2021/12/17 11:58:01;;;;;;;18.98;9.75;;;;;;;;;;5016016;28;20470;-65
2021/12/17 12:00:32;;;;;;;18.67;9.93;;;;;;;;;;5033829;28;20088;-65
2021/12/17 12:03:16;;;;;;;20.73;9.88;;;;;;;;;;5031820;28;20394;-65
2021/12/17 12:05:44;;;;;;;20.52;9.68;;;;;;;;;;5029004;28;20128;-65
2021/12/17 12:08:24;;;;;;;21.38;10.35;;;;;;;;;;5030292;28;20038;-65
2021/12/17 12:11:09;;;;;;;20.33;9.85;;;;;;;;;;5023659;28;20053;-65
2021/12/17 12:13:36;;;;;;;21.25;10.02;;;;;;;;;;5018158;28;20407;-65
2021/12/17 12:16:04;;;;;;;24.77;10.55;;;;;;;;;;5034072;23;20179;-74
2021/12/17 12:18:43;;;;;;;22.95;10.40;;;;;;;;;;5027065;28;20450;-75
2021/12/17 12:21:11;;;;;;;21.40;9.32;;;;;;;;;;5013261;28;20046;-74
2021/12/17 12:23:39;;;;;;;18.90;10.00;;;;;;;;;;5031524;28;20156;-74
2021/12/17 12:26:05;;;;;;;21.92;9.73;;;;;;;;;;5033447;28;20037;-74
2021/12/17 12:28:46;;;;;;;23.73;10.30;;;;;;;;;;5023159;28;20034;-75
2021/12/17 12:31:37;;;;;;;20.52;9.65;;;;;;;;;;5007617;28;20060;-75
2021/12/17 12:34:03;;;;;;;20.77;10.00;;;;;;;;;;5010749;28;20113;-75
2021/12/17 12:36:44;;;;;;;22.45;9.85;;;;;;;;;;5016554;28;20077;-74
2021/12/17 12:39:13;;;;;;;18.60;9.77;;;;;;;;;;5011364;28;20034;-75
2021/12/17 12:41:44;;;;;;;19.67;9.55;;;;;;;;;;5007874;28;20124;-75
2021/12/17 12:44:10;;;;;;;18.38;8.45;;;;;;;;;;5007993;28;20399;-75
2021/12/17 12:46:53;;;;;;;18.58;9.02;;;;;;;;;;5012297;28;20050;-75
2021/12/17 12:49:38;;;;;;;18.85;9.10;;;;;;;;;;5010387;28;20034;-75
2021/12/17 12:52:14;;;;;;;16.95;6.93;;;;;;;;;;5005680;28;20456;-75
2021/12/17 12:54:40;;;;;;;21.00;8.40;;;;;;;;;;5010085;28;20522;-75
2021/12/17 12:57:06;;;;;;;19.30;9.00;;;;;;;;;;5012215;28;20456;-75
2021/12/17 12:59:32;;;;;;;15.85;7.63;;;;;;;;;;5012798;28;20042;-75
2021/12/17 13:01:58;;;;;;;16.85;8.45;;;;;;;;;;5010204;28;20522;-76
2021/12/17 13:04:30;;;;;;;15.55;7.75;;;;;;;;;;5010900;28;20042;-76
2021/12/17 13:06:56;;;;;;;16.52;7.97;;;;;;;;;;5012600;28;20041;-75
2021/12/17 13:09:29;;;;;;;16.92;7.88;;;;;;;;;;5012478;28;20034;-75
2021/12/17 13:11:55;;;;;;;16.83;8.05;;;;;;;;;;5005566;28;20510;-76
2021/12/17 13:14:24;;;;;;;16.98;8.00;;;;;;;;;;5011259;28;20042;-75
2021/12/17 13:17:19;;;;;;;15.90;8.10;;;;;;;;;;5012236;28;20459;-76
2021/12/17 13:23:00;;;;;;;17.13;7.63;;;;;;;;;;4986993;28;20064;-76
2021/12/17 13:25:27;;;;;;;16.73;8.00;;;;;;;;;;5011994;28;20046;-76
2021/12/17 13:27:56;;;;;;;16.65;8.05;;;;;;;;;;5010791;28;21383;-76
2021/12/17 13:30:25;;;;;;;20.27;8.15;;;;;;;;;;5008510;28;20072;-76
2021/12/17 13:32:52;;;;;;;16.90;8.13;;;;;;;;;;5006192;28;20099;-76
2021/12/17 13:35:18;;;;;;;14.82;7.40;;;;;;;;;;5010993;28;20040;-76
2021/12/17 13:37:44;;;;;;;15.07;7.68;;;;;;;;;;5011647;28;20038;-75
2021/12/17 13:40:12;;;;;;;15.52;7.38;;;;;;;;;;5009836;28;20038;-75
2021/12/17 13:42:48;;;;;;;15.23;8.00;;;;;;;;;;5010677;28;20064;-76
2021/12/17 13:45:18;;;;;;;20.58;7.93;;;;;;;;;;5026852;28;20037;-75
2021/12/17 13:47:46;;;;;;;17.33;8.40;;;;;;;;;;5012016;28;20049;-75
2021/12/17 13:50:43;;;;;;;14.90;8.30;;;;;;;;;;5012127;28;20507;-75
2021/12/17 13:53:13;;;;;;;17.67;8.00;;;;;;;;;;4998239;28;20068;-75
2021/12/17 13:55:50;;;;;;;14.60;7.68;;;;;;;;;;5002917;28;20065;-76
2021/12/17 13:58:23;;;;;;;14.18;7.22;;;;;;;;;;5010882;28;20038;-76
2021/12/17 14:00:52;;;;;;;14.38;7.38;;;;;;;;;;5009669;28;20049;-76
2021/12/17 14:03:22;;;;;;;14.95;7.28;;;;;;;;;;5009508;28;20074;-76
2021/12/17 14:05:51;;;;;;;11.73;5.93;;;;;;;;;;5009114;28;20087;-76
2021/12/17 14:08:20;;;;;;;8.93;5.43;;;;;;;;;;5010282;28;20048;-75
2021/12/17 14:10:48;;;;;;;10.50;5.60;;;;;;;;;;5010558;28;20052;-76
2021/12/17 14:13:18;;;;;;;9.45;5.63;;;;;;;;;;5009972;28;20045;-75
2021/12/17 14:15:45;;;;;;;10.43;5.70;;;;;;;;;;5011090;28;20077;-76
2021/12/17 14:18:14;;;;;;;11.45;5.45;;;;;;;;;;5010479;28;20304;-73
2021/12/17 14:20:40;;;;;;;9.05;5.43;;;;;;;;;;5009678;28;20491;-76
2021/12/17 14:23:07;;;;;;;10.40;5.25;;;;;;;;;;5007908;28;20041;-75
2021/12/17 14:25:40;;;;;;;9.45;5.50;;;;;;;;;;5011112;28;20411;-75
2021/12/17 14:28:21;;;;;;;10.88;5.35;;;;;;;;;;5012127;28;20077;-75
2021/12/17 14:30:58;;;;;;;10.65;4.78;;;;;;;;;;5014565;28;20053;-75
2021/12/17 14:33:25;;;;;;;9.93;4.97;;;;;;;;;;5015722;28;20383;-74
2021/12/17 14:35:56;;;;;;;9.02;4.68;;;;;;;;;;5015355;28;20399;-75
2021/12/17 14:38:24;;;;;;;9.02;5.15;;;;;;;;;;5017477;28;20069;-75
2021/12/17 14:40:54;;;;;;;8.63;4.80;;;;;;;;;;5014517;28;20056;-75
2021/12/17 14:43:21;;;;;;;8.52;5.10;;;;;;;;;;5015260;28;20053;-74
2021/12/17 14:45:54;;;;;;;9.80;4.82;;;;;;;;;;5015075;28;20038;-75
2021/12/17 14:48:31;;;;;;;8.80;4.68;;;;;;;;;;5015664;28;20042;-75
2021/12/17 15:02:26;;;;;;;7.97;4.05;;;;;;;;;;5016611;28;20472;-75
2021/12/17 15:04:52;;;;;;;8.02;3.80;;;;;;;;;;5011427;28;20057;-75
2021/12/17 15:07:20;;;;;;;7.32;4.03;;;;;;;;;;5014102;28;20037;-76
2021/12/17 15:09:46;;;;;;;7.82;3.50;;;;;;;;;;5018572;28;20053;-76
2021/12/17 15:14:57;;;;;;;5.00;2.65;;;;;;;;;;5015339;28;20076;-75
2021/12/17 15:17:23;;;;;;;2.58;1.70;;;;;;;;;;5013242;28;20041;-75
2021/12/17 15:19:49;;;;;;;4.70;1.83;;;;;;;;;;5014261;28;20038;-75
2021/12/17 15:22:15;;;;;;;3.85;1.95;;;;;;;;;;5006004;28;20042;-75
2021/12/17 15:24:41;;;;;;;4.40;2.13;;;;;;;;;;5010777;28;20034;-75
2021/12/17 15:27:07;;;;;;;2.83;1.85;;;;;;;;;;4995102;28;20038;-75
2021/12/17 15:29:33;;;;;;;2.65;1.98;;;;;;;;;;5004375;28;20180;-75
2021/12/17 15:31:59;;;;;;;3.40;1.98;;;;;;;;;;5010581;28;20104;-75
2021/12/17 15:34:26;;;;;;;3.88;2.28;;;;;;;;;;5004924;28;20050;-75
2021/12/17 15:36:53;;;;;;;5.95;2.97;;;;;;;;;;5014103;28;20395;-75
2021/12/17 15:39:19;;;;;;;5.38;2.95;;;;;;;;;;4995028;28;20100;-75
2021/12/17 15:41:45;;;;;;;4.57;2.63;;;;;;;;;;5007095;28;20467;-75
2021/12/17 15:44:11;;;;;;;5.88;3.05;;;;;;;;;;5013675;28;20030;-75
2021/12/17 15:46:38;;;;;;;6.72;3.50;;;;;;;;;;5006528;28;20046;-75
2021/12/17 15:49:04;;;;;;;5.63;3.83;;;;;;;;;;5009499;28;20026;-75
2021/12/17 15:51:30;;;;;;;6.38;3.67;;;;;;;;;;5011849;28;20038;-75
2021/12/17 15:53:56;;;;;;;6.90;4.00;;;;;;;;;;5007223;28;20061;-75
2021/12/17 15:56:23;;;;;;;6.93;4.15;;;;;;;;;;5006121;28;20042;-75
2021/12/17 15:58:49;;;;;;;9.68;4.45;;;;;;;;;;5008121;28;20050;-75
2021/12/17 16:01:15;;;;;;;7.90;4.82;;;;;;;;;;5012500;28;20061;-75
2021/12/17 16:03:43;;;;;;;9.25;4.90;;;;;;;;;;5010208;28;20111;-75
2021/12/17 16:06:09;;;;;;;7.85;5.00;;;;;;;;;;5008486;28;20041;-75
2021/12/17 16:08:40;;;;;;;9.45;5.28;;;;;;;;;;5008981;28;20077;-75
2021/12/17 16:11:45;;;;;;;8.30;5.15;;;;;;;;;;5004544;28;20089;-75
2021/12/17 16:22:05;;;;;;;9.35;5.63;;;;;;;;;;5003538;28;20079;-75
2021/12/17 16:24:31;;;;;;;10.15;5.90;;;;;;;;;;5010097;28;20037;-75
2021/12/17 16:26:57;;;;;;;13.90;6.40;;;;;;;;;;5005811;28;20466;-75
2021/12/17 16:29:23;;;;;;;10.63;5.88;;;;;;;;;;5009227;28;20038;-78
2021/12/17 16:31:50;;;;;;;12.40;6.45;;;;;;;;;;5003270;28;20071;-75
2021/12/17 16:34:16;;;;;;;13.23;6.55;;;;;;;;;;5003369;28;20055;-75
2021/12/17 16:36:43;;;;;;;12.63;6.20;;;;;;;;;;5007039;28;20038;-75
2021/12/17 16:39:11;;;;;;;10.32;5.82;;;;;;;;;;5005363;28;20034;-75
2021/12/17 16:41:37;;;;;;;12.82;6.60;;;;;;;;;;5011723;28;20509;-75
2021/12/17 16:44:07;;;;;;;13.15;7.20;;;;;;;;;;4992590;28;20073;-75
2021/12/17 16:49:10;;;;;;;9.98;6.03;;;;;;;;;;5011636;28;20046;-75
2021/12/17 16:51:36;;;;;;;11.90;6.72;;;;;;;;;;5010740;28;20341;-75
2021/12/17 16:54:02;;;;;;;13.02;6.88;;;;;;;;;;5008360;28;20057;-75
2021/12/17 16:56:28;;;;;;;13.13;6.43;;;;;;;;;;5012105;28;20038;-74
2021/12/17 16:58:55;;;;;;;13.88;6.93;;;;;;;;;;5011844;28;20034;-74
2021/12/17 17:01:21;;;;;;;12.73;6.68;;;;;;;;;;5011845;28;20050;-74
2021/12/17 17:03:47;;;;;;;13.75;7.13;;;;;;;;;;5012755;28;20061;-75
2021/12/17 17:06:13;;;;;;;11.90;6.95;;;;;;;;;;5026652;28;20041;-75
2021/12/17 17:08:40;;;;;;;12.43;6.82;;;;;;;;;;5011592;28;20112;-74
2021/12/17 17:11:08;;;;;;;11.57;6.60;;;;;;;;;;5011677;28;20147;-74
2021/12/17 17:13:34;;;;;;;9.80;6.20;;;;;;;;;;5012810;28;20045;-74
2021/12/17 17:16:04;;;;;;;11.23;6.95;;;;;;;;;;5020068;28;20038;-73
2021/12/17 17:18:31;;;;;;;12.80;7.10;;;;;;;;;;5011901;28;20133;-73
2021/12/17 17:20:58;;;;;;;13.65;7.70;;;;;;;;;;5010926;28;20037;-74
2021/12/17 17:23:24;;;;;;;14.40;7.80;;;;;;;;;;5012175;28;20041;-73
2021/12/17 17:25:50;;;;;;;14.98;7.90;;;;;;;;;;5013575;28;20042;-74
2021/12/17 17:28:17;;;;;;;15.15;7.07;;;;;;;;;;5011298;28;20514;-73
2021/12/17 17:30:43;;;;;;;12.25;7.35;;;;;;;;;;5010941;28;20042;-74
2021/12/17 17:33:09;;;;;;;16.27;8.02;;;;;;;;;;5006549;28;20049;-74
2021/12/17 17:35:36;;;;;;;13.68;7.75;;;;;;;;;;5015244;28;20038;-74
2021/12/17 17:38:03;;;;;;;13.35;7.43;;;;;;;;;;5011538;28;20503;-74